Time;durP1;ratioP1;P1;durP2;ratioP2;P2;SDS_P1;SDS_P2;PMS_P1;PMS_P2;Temp;Humidity;BMP_temperature;BMP_pressure;BME280_temperature;BME280_humidity;BME280_pressure;Samples;Min_cycle;Max_cycle;Signal;HPM_P1;HPM_P2
2022/09/17 00:01:06;;;;;;;8.00;1.40;;;12.50;99.90;;;;;;5036390;28;20029;-38
2022/09/17 00:03:35;;;;;;;4.35;1.27;;;12.50;99.90;;;;;;5034849;28;20029;-38
2022/09/17 00:06:06;;;;;;;10.52;1.85;;;12.40;99.90;;;;;;5034687;28;20033;-38
2022/09/17 00:08:33;;;;;;;13.63;1.48;;;12.50;99.90;;;;;;5032422;28;20030;-38
2022/09/17 00:11:08;;;;;;;4.78;0.95;;;12.50;99.90;;;;;;5035415;28;20053;-32
2022/09/17 00:13:34;;;;;;;12.23;2.65;;;12.40;99.90;;;;;;5034309;28;20488;-35
2022/09/17 00:16:00;;;;;;;12.07;1.25;;;12.40;99.90;;;;;;5035238;28;20161;-30
2022/09/17 00:18:26;;;;;;;4.65;0.95;;;12.30;99.90;;;;;;5033999;28;20056;-40
2022/09/17 00:20:52;;;;;;;10.75;1.70;;;12.20;99.90;;;;;;5034541;28;20068;-40
2022/09/17 00:23:17;;;;;;;11.02;0.98;;;12.20;99.90;;;;;;5028851;28;20486;-50
2022/09/17 00:25:44;;;;;;;9.20;1.50;;;12.20;99.90;;;;;;5025689;28;20060;-38
2022/09/17 00:28:12;;;;;;;14.88;1.30;;;12.20;99.90;;;;;;5030457;28;20037;-41
2022/09/17 00:30:42;;;;;;;6.40;1.40;;;12.20;99.90;;;;;;5018553;28;20018;-38
2022/09/17 00:33:11;;;;;;;6.32;1.08;;;12.20;99.90;;;;;;5034700;28;20021;-38
2022/09/17 00:35:36;;;;;;;7.63;0.90;;;12.30;99.90;;;;;;5033417;28;20079;-38
2022/09/17 00:38:02;;;;;;;10.07;1.30;;;12.40;99.90;;;;;;5032890;28;20052;-38
2022/09/17 00:40:28;;;;;;;9.00;2.00;;;12.20;99.90;;;;;;5034436;28;20517;-38
2022/09/17 00:42:53;;;;;;;11.98;1.20;;;12.30;99.90;;;;;;5033220;28;20018;-42
2022/09/17 00:45:20;;;;;;;4.70;1.17;;;12.20;99.90;;;;;;5034719;28;20025;-41
2022/09/17 00:48:02;;;;;;;5.78;1.02;;;12.20;99.90;;;;;;5033315;28;20022;-39
2022/09/17 00:50:33;;;;;;;10.38;2.13;;;12.20;99.90;;;;;;5033172;28;20085;-41
2022/09/17 00:53:06;;;;;;;8.40;1.15;;;12.20;99.90;;;;;;5026314;28;20088;-38
2022/09/17 00:55:50;;;;;;;4.72;1.08;;;12.20;99.90;;;;;;5033424;28;20029;-40
2022/09/17 00:58:19;;;;;;;6.80;1.77;;;12.20;99.90;;;;;;5032836;28;20043;-39
2022/09/17 01:00:45;;;;;;;8.35;0.93;;;12.20;99.90;;;;;;5021770;28;20028;-39
2022/09/17 01:03:11;;;;;;;11.40;1.17;;;12.20;99.90;;;;;;5031445;28;20033;-37
2022/09/17 01:05:47;;;;;;;7.93;1.35;;;12.20;99.90;;;;;;5033938;28;20253;-39
2022/09/17 01:08:25;;;;;;;9.93;1.65;;;12.30;99.90;;;;;;5024317;28;20018;-40
2022/09/17 01:11:18;;;;;;;8.48;1.50;;;12.30;99.90;;;;;;5031133;28;20473;-39
2022/09/17 01:13:56;;;;;;;10.48;1.00;;;12.20;99.90;;;;;;5029209;28;20025;-39
2022/09/17 01:16:27;;;;;;;6.93;1.30;;;12.30;99.90;;;;;;5030973;28;20033;-39
2022/09/17 01:19:25;;;;;;;6.03;1.00;;;12.30;99.90;;;;;;5031422;28;20041;-39
2022/09/17 01:22:07;;;;;;;11.60;1.02;;;12.30;99.90;;;;;;5031693;28;20022;-36
2022/09/17 01:25:11;;;;;;;9.07;1.30;;;12.30;99.90;;;;;;5030840;28;20029;-34
2022/09/17 01:27:48;;;;;;;10.13;1.17;;;12.30;99.90;;;;;;5034867;28;20378;-33
2022/09/17 01:30:39;;;;;;;11.15;1.35;;;12.30;99.90;;;;;;5030610;28;20029;-32
2022/09/17 01:33:08;;;;;;;11.45;0.98;;;12.30;99.90;;;;;;5040138;28;20040;-35
2022/09/17 01:36:11;;;;;;;5.80;1.60;;;12.40;99.90;;;;;;5033248;28;20068;-39
2022/09/17 01:39:02;;;;;;;5.55;0.93;;;12.30;99.90;;;;;;5031045;28;20029;-40
2022/09/17 01:41:47;;;;;;;8.85;1.60;;;12.40;99.90;;;;;;5013725;28;20061;-31
2022/09/17 01:44:21;;;;;;;6.60;1.52;;;12.30;99.90;;;;;;5030885;28;20033;-34
2022/09/17 01:46:53;;;;;;;5.22;1.08;;;12.40;99.90;;;;;;5033486;28;20492;-37
2022/09/17 01:49:22;;;;;;;12.48;1.65;;;12.40;99.90;;;;;;5027134;28;20486;-38
2022/09/17 01:51:49;;;;;;;9.88;1.30;;;12.30;99.90;;;;;;5031271;28;20108;-35
2022/09/17 01:54:23;;;;;;;3.85;1.10;;;12.30;99.90;;;;;;5031669;28;20541;-34
2022/09/17 01:57:00;;;;;;;8.80;1.42;;;12.30;99.90;;;;;;5030381;28;20482;-36
2022/09/17 01:59:35;;;;;;;8.57;1.33;;;12.30;99.90;;;;;;5030562;28;20482;-31
2022/09/17 02:02:26;;;;;;;10.50;1.90;;;12.30;99.90;;;;;;5017239;28;20109;-32
2022/09/17 02:05:07;;;;;;;8.00;1.20;;;12.20;99.90;;;;;;5031066;28;20113;-32
2022/09/17 02:07:42;;;;;;;14.10;1.50;;;12.20;99.90;;;;;;5031251;28;20025;-35
2022/09/17 02:10:16;;;;;;;9.07;1.48;;;12.20;99.90;;;;;;5027341;28;20095;-35
2022/09/17 02:12:52;;;;;;;6.88;0.88;;;12.20;99.90;;;;;;5030910;28;20034;-38
2022/09/17 02:15:33;;;;;;;6.00;1.13;;;12.20;99.90;;;;;;5031146;28;20048;-33
2022/09/17 02:18:25;;;;;;;9.95;0.80;;;12.20;99.90;;;;;;5030045;28;20091;-35
2022/09/17 02:21:05;;;;;;;8.23;0.88;;;12.30;99.90;;;;;;5033395;28;20477;-40
2022/09/17 02:23:38;;;;;;;5.78;1.05;;;12.30;99.90;;;;;;5031050;28;20091;-36
2022/09/17 02:26:10;;;;;;;11.00;2.60;;;12.20;99.90;;;;;;5030871;28;20033;-45
2022/09/17 02:28:36;;;;;;;7.28;1.23;;;12.20;99.90;;;;;;5028464;28;20033;-34
2022/09/17 02:31:02;;;;;;;4.65;1.63;;;12.30;99.90;;;;;;5027146;28;20105;-30
2022/09/17 02:33:30;;;;;;;3.67;0.82;;;12.30;99.90;;;;;;5032390;28;20101;-40
2022/09/17 02:35:56;;;;;;;17.25;2.45;;;12.30;99.90;;;;;;5028976;28;20029;-35
2022/09/17 02:38:25;;;;;;;10.95;1.75;;;12.30;99.90;;;;;;5031952;28;20021;-32
2022/09/17 02:41:14;;;;;;;8.63;1.67;;;12.30;99.90;;;;;;5021247;28;20050;-31
2022/09/17 02:43:55;;;;;;;5.57;1.00;;;12.30;99.90;;;;;;5026096;28;20029;-34
2022/09/17 02:46:42;;;;;;;6.50;1.08;;;12.20;99.90;;;;;;5031811;28;20029;-35
2022/09/17 02:49:37;;;;;;;2.30;0.75;;;12.10;99.90;;;;;;5029277;28;20079;-36
2022/09/17 02:52:22;;;;;;;12.68;1.42;;;12.00;99.90;;;;;;5033202;28;20037;-37
2022/09/17 02:55:00;;;;;;;16.27;1.35;;;12.00;99.90;;;;;;5025654;28;20505;-42
2022/09/17 02:57:32;;;;;;;14.10;1.13;;;11.90;99.90;;;;;;5029816;28;20057;-36
2022/09/17 03:00:04;;;;;;;8.35;1.00;;;11.90;99.90;;;;;;5032906;28;20545;-35
2022/09/17 03:02:49;;;;;;;10.15;1.17;;;11.80;99.90;;;;;;5032973;28;20029;-32
2022/09/17 03:05:18;;;;;;;5.25;0.55;;;11.80;99.90;;;;;;5027197;28;20474;-38
2022/09/17 03:07:44;;;;;;;5.47;1.33;;;11.80;99.90;;;;;;5032421;28;20056;-38
2022/09/17 03:10:10;;;;;;;6.22;0.68;;;11.70;99.90;;;;;;5030603;28;20061;-41
2022/09/17 03:12:36;;;;;;;5.45;1.77;;;11.60;99.90;;;;;;5031984;28;20036;-39
2022/09/17 03:15:03;;;;;;;13.77;0.98;;;11.60;99.90;;;;;;5030618;28;20156;-39
2022/09/17 03:17:29;;;;;;;8.07;1.08;;;11.60;99.90;;;;;;5022225;28;20553;-39
2022/09/17 03:19:55;;;;;;;6.70;0.80;;;11.50;99.90;;;;;;5018776;28;20061;-40
2022/09/17 03:22:20;;;;;;;3.67;0.70;;;11.40;99.90;;;;;;5032252;28;20045;-40
2022/09/17 03:24:46;;;;;;;6.32;1.30;;;11.30;99.90;;;;;;5031529;28;20450;-39
2022/09/17 03:27:11;;;;;;;3.35;1.00;;;11.30;99.90;;;;;;5032580;28;20044;-40
2022/09/17 03:29:37;;;;;;;6.28;1.73;;;11.30;99.90;;;;;;5035531;28;20028;-41
2022/09/17 03:32:04;;;;;;;4.93;1.08;;;11.30;99.90;;;;;;5036875;28;20026;-57
2022/09/17 03:34:30;;;;;;;4.82;1.30;;;11.30;99.90;;;;;;5033925;28;20494;-45
2022/09/17 03:36:55;;;;;;;6.13;1.27;;;11.30;99.90;;;;;;5035424;28;20026;-40
2022/09/17 03:39:21;;;;;;;8.38;1.17;;;11.30;99.90;;;;;;5036127;28;20049;-40
2022/09/17 03:41:46;;;;;;;2.50;0.95;;;11.30;99.90;;;;;;5034525;28;20116;-42
2022/09/17 03:44:13;;;;;;;6.57;1.33;;;11.30;99.90;;;;;;5033295;28;20497;-40
2022/09/17 03:46:39;;;;;;;4.68;0.90;;;11.30;99.90;;;;;;5035662;28;20013;-41
2022/09/17 03:49:05;;;;;;;5.88;0.90;;;11.30;99.90;;;;;;5030267;28;20044;-39
2022/09/17 03:51:30;;;;;;;10.75;1.75;;;11.30;99.90;;;;;;5021341;28;20041;-39
2022/09/17 03:53:56;;;;;;;9.55;2.08;;;11.30;99.90;;;;;;5035602;28;20525;-35
2022/09/17 03:56:21;;;;;;;11.25;1.63;;;11.30;99.90;;;;;;5034217;28;20503;-37
2022/09/17 03:58:47;;;;;;;5.82;0.85;;;11.20;99.90;;;;;;5034613;28;20036;-34
2022/09/17 04:01:13;;;;;;;6.97;1.00;;;11.20;99.90;;;;;;5034805;28;20026;-36
2022/09/17 04:03:39;;;;;;;4.47;0.98;;;11.20;99.90;;;;;;5034512;28;20033;-38
2022/09/17 04:06:04;;;;;;;10.80;1.10;;;11.20;99.90;;;;;;5033068;28;20099;-34
2022/09/17 04:08:30;;;;;;;11.68;1.48;;;11.20;99.90;;;;;;5025146;28;20037;-33
2022/09/17 04:10:56;;;;;;;8.88;0.40;;;11.10;99.90;;;;;;5036054;28;20025;-34
2022/09/17 04:13:21;;;;;;;5.80;0.80;;;11.20;99.90;;;;;;5033952;28;20493;-41
2022/09/17 04:15:47;;;;;;;15.10;1.15;;;11.20;99.90;;;;;;5034049;28;20029;-46
2022/09/17 04:18:13;;;;;;;5.38;0.98;;;11.20;99.90;;;;;;5034429;28;20029;-39
2022/09/17 04:20:39;;;;;;;7.88;0.95;;;11.20;99.90;;;;;;5024205;28;20718;-41
2022/09/17 04:23:06;;;;;;;7.60;1.00;;;11.10;99.90;;;;;;5015736;28;20057;-42
2022/09/17 04:25:32;;;;;;;3.63;0.75;;;11.20;99.90;;;;;;5030154;28;20047;-34
2022/09/17 04:27:58;;;;;;;6.63;0.80;;;11.10;99.90;;;;;;5033781;28;20100;-40
2022/09/17 04:30:24;;;;;;;7.53;0.90;;;11.10;99.90;;;;;;5028901;28;20117;-39
2022/09/17 04:32:49;;;;;;;8.38;0.85;;;11.10;99.90;;;;;;5019970;28;20033;-43
2022/09/17 04:35:15;;;;;;;7.90;1.95;;;11.10;99.90;;;;;;5031439;28;20425;-40
2022/09/17 04:37:41;;;;;;;4.68;0.50;;;11.20;99.90;;;;;;5030909;28;20029;-41
2022/09/17 04:40:07;;;;;;;1.52;0.52;;;11.10;99.90;;;;;;5034745;28;20050;-42
2022/09/17 04:42:33;;;;;;;3.88;0.80;;;11.10;99.90;;;;;;5049735;28;20124;-40
2022/09/17 04:44:58;;;;;;;7.70;0.95;;;11.10;99.90;;;;;;5033683;28;20121;-40
2022/09/17 04:47:24;;;;;;;7.10;1.13;;;11.00;99.90;;;;;;5034645;28;20385;-38
2022/09/17 04:49:50;;;;;;;2.53;0.60;;;11.00;99.90;;;;;;5030719;28;20026;-39
2022/09/17 04:52:16;;;;;;;9.25;1.27;;;11.00;99.90;;;;;;5021254;28;20030;-40
2022/09/17 04:54:42;;;;;;;1.73;0.93;;;11.00;99.90;;;;;;5039429;28;20512;-40
2022/09/17 04:57:07;;;;;;;9.27;0.70;;;11.00;99.90;;;;;;5032423;28;20033;-41
2022/09/17 04:59:33;;;;;;;10.65;1.08;;;11.00;99.90;;;;;;5042918;28;20510;-40
2022/09/17 05:01:58;;;;;;;10.02;1.10;;;11.00;99.90;;;;;;5028213;28;20021;-39
2022/09/17 05:04:24;;;;;;;6.05;0.70;;;11.00;99.90;;;;;;5033560;28;20481;-41
2022/09/17 05:06:49;;;;;;;10.38;0.95;;;11.00;99.90;;;;;;5034237;28;20037;-41
2022/09/17 05:09:15;;;;;;;5.63;0.85;;;11.10;99.90;;;;;;5031582;28;20028;-40
2022/09/17 05:11:41;;;;;;;2.88;0.60;;;11.10;99.90;;;;;;5033652;28;20029;-41
2022/09/17 05:14:07;;;;;;;7.18;0.93;;;11.10;99.90;;;;;;5029554;28;20037;-39
2022/09/17 05:16:32;;;;;;;3.80;0.47;;;11.20;99.90;;;;;;5033937;28;20026;-44
2022/09/17 05:18:58;;;;;;;4.05;0.60;;;11.20;99.90;;;;;;5033248;28;20087;-40
2022/09/17 05:21:24;;;;;;;3.00;0.80;;;11.20;99.90;;;;;;5034442;28;20033;-36
2022/09/17 05:23:49;;;;;;;6.80;0.98;;;11.20;99.90;;;;;;5033845;28;20454;-41
2022/09/17 05:26:15;;;;;;;2.95;0.70;;;11.20;99.90;;;;;;5033067;28;20037;-34
2022/09/17 05:28:41;;;;;;;7.63;1.38;;;11.20;99.90;;;;;;5031789;28;20805;-32
2022/09/17 05:31:07;;;;;;;5.15;0.65;;;11.20;99.90;;;;;;5033824;28;20421;-33
2022/09/17 05:33:33;;;;;;;4.82;0.60;;;11.10;99.90;;;;;;5032029;28;20515;-32
2022/09/17 05:35:59;;;;;;;3.58;0.52;;;11.00;99.90;;;;;;5025066;28;20029;-38
2022/09/17 05:38:24;;;;;;;3.63;0.80;;;10.90;99.90;;;;;;5032150;28;20083;-36
2022/09/17 05:40:50;;;;;;;10.38;1.13;;;10.80;99.90;;;;;;5033509;28;20513;-33
2022/09/17 05:43:16;;;;;;;3.50;1.00;;;10.80;99.90;;;;;;5031262;28;20034;-35
2022/09/17 05:45:42;;;;;;;7.20;0.60;;;10.80;99.90;;;;;;5021516;28;20030;-35
2022/09/17 05:48:12;;;;;;;2.53;0.47;;;10.80;99.90;;;;;;5026149;28;20033;-37
2022/09/17 05:50:38;;;;;;;7.22;0.60;;;10.80;99.90;;;;;;5026177;28;20034;-34
2022/09/17 05:53:06;;;;;;;4.55;0.93;;;10.80;99.90;;;;;;5013498;28;20022;-34
2022/09/17 05:55:33;;;;;;;9.90;0.68;;;10.80;99.90;;;;;;5026856;28;20032;-40
2022/09/17 05:58:00;;;;;;;3.58;0.30;;;10.80;99.90;;;;;;5026233;28;20172;-40
2022/09/17 06:00:26;;;;;;;3.40;0.43;;;10.80;99.90;;;;;;5028666;28;20076;-36
2022/09/17 06:02:56;;;;;;;5.68;0.60;;;10.80;99.90;;;;;;5031351;28;20028;-35
2022/09/17 06:05:24;;;;;;;9.23;1.02;;;10.90;99.90;;;;;;5033101;28;20390;-36
2022/09/17 06:07:50;;;;;;;3.08;0.50;;;10.80;99.90;;;;;;5026027;28;20489;-35
2022/09/17 06:10:16;;;;;;;8.15;0.75;;;10.90;99.90;;;;;;5023868;28;20045;-37
2022/09/17 06:12:42;;;;;;;5.75;0.60;;;10.90;99.90;;;;;;5022916;28;20482;-34
2022/09/17 06:15:13;;;;;;;1.27;0.25;;;10.90;99.90;;;;;;5032209;28;20036;-38
2022/09/17 06:17:39;;;;;;;1.17;0.32;;;10.90;99.90;;;;;;5034079;28;20555;-37
2022/09/17 06:20:05;;;;;;;2.40;0.55;;;10.90;99.90;;;;;;5030889;28;20029;-32
2022/09/17 06:22:31;;;;;;;8.00;0.93;;;11.00;99.90;;;;;;5031494;28;20482;-36
2022/09/17 06:24:58;;;;;;;3.92;0.50;;;11.10;99.90;;;;;;5029175;28;20108;-39
2022/09/17 06:27:32;;;;;;;1.65;0.50;;;11.10;99.90;;;;;;5032993;28;20029;-42
2022/09/17 06:29:58;;;;;;;4.78;1.08;;;11.20;99.90;;;;;;5031404;28;20433;-42
2022/09/17 06:32:23;;;;;;;6.00;0.60;;;11.20;99.90;;;;;;5033577;28;20461;-30
2022/09/17 06:34:49;;;;;;;11.82;0.70;;;11.30;99.90;;;;;;5031628;28;20075;-32
2022/09/17 06:37:15;;;;;;;1.05;0.50;;;11.30;99.90;;;;;;5032393;28;20021;-32
2022/09/17 06:39:41;;;;;;;4.05;0.45;;;11.40;99.90;;;;;;5032606;28;20050;-34
2022/09/17 06:42:06;;;;;;;0.88;0.40;;;11.40;99.90;;;;;;5029003;28;20018;-31
2022/09/17 06:44:32;;;;;;;5.30;1.20;;;11.50;99.90;;;;;;5030754;28;20090;-34
2022/09/17 06:46:57;;;;;;;5.85;0.90;;;11.50;99.90;;;;;;5031584;28;20101;-34
2022/09/17 06:49:23;;;;;;;3.30;0.25;;;11.60;99.90;;;;;;5020165;28;20034;-35
2022/09/17 06:51:49;;;;;;;5.65;0.80;;;11.60;99.90;;;;;;5029170;28;20017;-36
2022/09/17 06:54:14;;;;;;;3.42;0.65;;;11.60;99.90;;;;;;5022993;28;20079;-35
2022/09/17 06:56:40;;;;;;;3.63;0.30;;;11.70;99.90;;;;;;5025617;28;20040;-41
2022/09/17 06:59:06;;;;;;;6.07;0.55;;;11.80;99.90;;;;;;5024850;28;20081;-34
2022/09/17 07:01:31;;;;;;;2.92;0.80;;;11.90;99.90;;;;;;5026141;28;20029;-35
2022/09/17 07:03:57;;;;;;;4.97;0.70;;;12.00;99.90;;;;;;5019913;28;20489;-35
2022/09/17 07:06:23;;;;;;;5.38;1.35;;;12.10;99.90;;;;;;5032792;28;20017;-37
2022/09/17 07:08:48;;;;;;;3.13;0.47;;;12.10;99.90;;;;;;5033114;28;20477;-35
2022/09/17 07:11:16;;;;;;;5.60;0.80;;;12.10;99.90;;;;;;5023939;28;20159;-45
2022/09/17 07:13:42;;;;;;;3.58;0.82;;;12.10;99.90;;;;;;5031586;28;20470;-35
2022/09/17 07:16:09;;;;;;;7.60;1.13;;;12.10;99.90;;;;;;5013651;28;20061;-33
2022/09/17 07:18:35;;;;;;;2.83;0.52;;;12.10;99.90;;;;;;5015829;28;20061;-33
2022/09/17 07:21:03;;;;;;;5.32;0.60;;;12.20;99.90;;;;;;5031953;28;20489;-37
2022/09/17 07:23:31;;;;;;;5.38;0.47;;;12.30;99.90;;;;;;5032689;28;20033;-31
2022/09/17 07:25:58;;;;;;;;;;;12.40;99.90;;;;;;5032346;28;20474;-34
2022/09/17 07:28:24;;;;;;;3.43;0.50;;;12.60;99.90;;;;;;5030266;28;19952;-37
2022/09/17 07:30:51;;;;;;;3.65;0.60;;;12.70;99.90;;;;;;5030635;28;20033;-45
2022/09/17 07:33:22;;;;;;;3.95;0.90;;;12.90;99.90;;;;;;5026391;28;20112;-35
2022/09/17 07:36:00;;;;;;;7.95;0.75;;;13.00;99.90;;;;;;5029172;28;20389;-32
2022/09/17 07:38:28;;;;;;;1.95;0.88;;;13.10;99.90;;;;;;5022281;28;20025;-37
2022/09/17 07:40:54;;;;;;;4.25;1.25;;;13.10;99.90;;;;;;5019303;28;20053;-36
2022/09/17 07:43:20;;;;;;;3.13;0.60;;;12.90;99.90;;;;;;5031062;28;20091;-36
2022/09/17 07:45:45;;;;;;;0.77;0.50;;;13.00;99.90;;;;;;5021459;28;20489;-34
2022/09/17 07:48:11;;;;;;;7.18;0.50;;;13.00;99.90;;;;;;5031781;28;20033;-32
2022/09/17 07:50:37;;;;;;;8.18;0.77;;;13.10;99.90;;;;;;5016836;28;20030;-39
2022/09/17 07:53:03;;;;;;;6.63;0.55;;;13.20;99.90;;;;;;5028224;28;20378;-33
2022/09/17 07:55:28;;;;;;;8.93;0.60;;;13.50;99.90;;;;;;5031767;28;20060;-36
2022/09/17 07:57:54;;;;;;;1.77;0.47;;;13.50;99.90;;;;;;5030665;28;20498;-35
2022/09/17 08:00:20;;;;;;;6.90;1.00;;;13.60;99.90;;;;;;5029984;28;20037;-35
2022/09/17 08:02:53;;;;;;;5.03;1.77;;;13.70;99.90;;;;;;5031200;28;20022;-36
2022/09/17 08:05:19;;;;;;;5.97;0.55;;;13.70;99.90;;;;;;5029165;28;20124;-36
2022/09/17 08:07:52;;;;;;;5.65;0.68;;;13.50;99.90;;;;;;5015789;28;20117;-34
2022/09/17 08:10:21;;;;;;;3.15;0.63;;;13.50;99.90;;;;;;5029304;28;20495;-37
2022/09/17 08:12:54;;;;;;;4.65;0.73;;;13.40;99.90;;;;;;5032549;28;20048;-34
2022/09/17 08:15:20;;;;;;;2.20;0.38;;;13.50;99.90;;;;;;5032970;28;20588;-33
2022/09/17 08:17:46;;;;;;;3.60;0.85;;;13.70;99.90;;;;;;5031181;28;20104;-33
2022/09/17 08:20:13;;;;;;;8.45;0.52;;;13.90;99.90;;;;;;5035816;28;20113;-31
2022/09/17 08:22:39;;;;;;;0.25;0.25;;;14.10;99.90;;;;;;5029637;28;20385;-38
2022/09/17 08:25:06;;;;;;;2.33;0.43;;;14.20;99.90;;;;;;5029110;28;20037;-34
2022/09/17 08:27:32;;;;;;;0.77;0.43;;;14.20;99.90;;;;;;5023197;28;20033;-37
2022/09/17 08:29:58;;;;;;;11.20;1.45;;;14.20;99.90;;;;;;5023782;28;20386;-32
2022/09/17 08:32:24;;;;;;;1.85;0.50;;;14.10;99.90;;;;;;5023621;28;20488;-35
2022/09/17 08:34:52;;;;;;;0.70;0.20;;;13.90;99.90;;;;;;5035308;28;20108;-35
2022/09/17 08:37:18;;;;;;;2.67;0.55;;;13.60;99.90;;;;;;5025543;28;20382;-37
2022/09/17 08:39:44;;;;;;;2.50;0.30;;;13.20;99.90;;;;;;5015524;28;20045;-38
2022/09/17 08:42:37;;;;;;;3.38;0.52;;;12.50;99.90;;;;;;5035176;28;20087;-35
2022/09/17 08:45:07;;;;;;;6.07;0.50;;;12.10;99.90;;;;;;5035329;28;20021;-34
2022/09/17 08:47:44;;;;;;;3.72;0.50;;;11.80;99.90;;;;;;5035421;28;20021;-32
2022/09/17 08:50:31;;;;;;;6.40;1.53;;;11.70;99.90;;;;;;5035322;28;20049;-33
2022/09/17 08:53:25;;;;;;;0.67;0.40;;;11.60;99.90;;;;;;5035375;28;20287;-35
2022/09/17 08:56:02;;;;;;;2.30;0.43;;;11.70;99.90;;;;;;5035248;28;20409;-32
2022/09/17 08:59:18;;;;;;;0.90;0.13;;;12.00;99.90;;;;;;5035097;28;20017;-33
2022/09/17 09:02:02;;;;;;;9.02;0.65;;;12.40;99.90;;;;;;5013198;28;20044;-35
2022/09/17 09:04:55;;;;;;;5.88;0.63;;;12.60;99.90;;;;;;5013154;28;20030;-33
2022/09/17 09:07:26;;;;;;;4.32;0.55;;;12.60;99.90;;;;;;5041327;28;20030;-35
2022/09/17 09:10:05;;;;;;;3.50;0.52;;;12.50;99.90;;;;;;5034912;28;20030;-32
2022/09/17 09:12:34;;;;;;;2.20;0.68;;;12.40;99.90;;;;;;5033752;28;20021;-45
2022/09/17 09:15:01;;;;;;;4.32;0.95;;;12.30;99.90;;;;;;5034524;28;20040;-32
2022/09/17 09:17:37;;;;;;;7.43;0.68;;;12.20;99.90;;;;;;5034907;28;20528;-33
2022/09/17 09:20:04;;;;;;;7.03;0.90;;;12.20;99.90;;;;;;5034912;28;20075;-35
2022/09/17 09:22:35;;;;;;;2.75;0.70;;;12.10;99.90;;;;;;5035013;28;20040;-34
2022/09/17 09:25:17;;;;;;;4.72;0.60;;;12.20;99.90;;;;;;5033422;28;20386;-31
2022/09/17 09:28:05;;;;;;;1.13;0.68;;;12.40;99.90;;;;;;5035022;28;20492;-34
2022/09/17 09:31:33;;;;;;;10.02;0.80;;;12.70;99.90;;;;;;5066682;28;20028;-35
2022/09/17 09:34:00;;;;;;;;;;;13.00;99.90;;;;;;5013056;28;20084;-35
2022/09/17 09:36:28;;;;;;;4.25;1.13;;;13.20;99.90;;;;;;5012505;28;20008;-37
2022/09/17 09:39:00;;;;;;;11.93;0.70;;;13.20;99.90;;;;;;5012376;28;20053;-34
2022/09/17 09:41:31;;;;;;;10.20;1.27;;;13.40;99.90;;;;;;5012625;28;20549;-34
2022/09/17 09:44:17;;;;;;;6.68;1.15;;;13.60;99.90;;;;;;5012506;28;20482;-37
2022/09/17 09:46:50;;;;;;;5.57;0.75;;;13.70;99.90;;;;;;5020365;28;20032;-38
2022/09/17 09:49:24;;;;;;;3.08;0.50;;;13.80;99.90;;;;;;5031900;28;20477;-34
2022/09/17 09:52:33;;;;;;;3.42;0.45;;;14.00;99.90;;;;;;5032073;28;20083;-32
2022/09/17 09:55:41;;;;;;;1.85;0.57;;;14.20;99.90;;;;;;5032040;28;20651;-39
2022/09/17 09:58:33;;;;;;;3.90;0.77;;;14.30;99.90;;;;;;5032009;28;20041;-41
2022/09/17 10:00:59;;;;;;;4.53;0.50;;;14.50;99.90;;;;;;5032060;28;20445;-37
2022/09/17 10:03:31;;;;;;;2.15;0.47;;;14.50;99.90;;;;;;5031857;28;20030;-38
2022/09/17 10:06:08;;;;;;;6.05;0.77;;;14.40;99.90;;;;;;5033432;28;20033;-36
2022/09/17 10:08:35;;;;;;;;;;;14.20;99.90;;;;;;5034319;28;20151;-36
2022/09/17 10:11:20;;;;;;;1.77;0.57;;;13.90;99.90;;;;;;5033822;28;19905;-38
2022/09/17 10:13:46;;;;;;;3.50;1.05;;;13.70;99.90;;;;;;5033930;28;20079;-34
2022/09/17 10:16:16;;;;;;;3.53;0.50;;;13.60;99.90;;;;;;5033997;28;20017;-35
2022/09/17 10:18:43;;;;;;;1.60;0.55;;;13.50;99.90;;;;;;5033994;28;20033;-37
2022/09/17 10:21:18;;;;;;;10.32;0.82;;;13.50;99.90;;;;;;5034006;28;20423;-32
2022/09/17 10:23:44;;;;;;;1.17;0.55;;;13.50;99.90;;;;;;5033183;28;20091;-35
2022/09/17 10:26:22;;;;;;;2.95;0.43;;;13.40;99.90;;;;;;5022447;28;20033;-42
2022/09/17 10:28:49;;;;;;;;;;;13.60;99.90;;;;;;5014512;28;20076;-39
2022/09/17 10:31:15;;;;;;;1.88;0.52;;;13.80;99.90;;;;;;5013849;28;19932;-41
2022/09/17 10:33:59;;;;;;;5.13;0.60;;;14.00;99.90;;;;;;5013712;28;20022;-40
2022/09/17 10:36:39;;;;;;;4.00;0.50;;;14.20;99.90;;;;;;5013368;28;20028;-40
2022/09/17 10:39:37;;;;;;;2.00;0.52;;;14.40;99.90;;;;;;5015829;28;20076;-39
2022/09/17 10:42:09;;;;;;;2.63;0.85;;;14.60;99.90;;;;;;5024705;28;20045;-45
2022/09/17 10:44:37;;;;;;;6.90;1.77;;;14.80;99.90;;;;;;5032905;28;20394;-41
2022/09/17 10:47:10;;;;;;;6.82;1.00;;;15.00;99.90;;;;;;5032110;28;20486;-37
2022/09/17 10:49:38;;;;;;;1.42;0.40;;;15.10;99.90;;;;;;5017035;28;20022;-40
2022/09/17 10:52:09;;;;;;;;;;;15.10;99.90;;;;;;5013972;28;20025;-42
2022/09/17 10:54:51;;;;;;;0.55;0.20;;;15.30;99.90;;;;;;5057773;28;19909;-40
2022/09/17 10:57:31;;;;;;;5.70;0.52;;;15.50;99.90;;;;;;5032696;28;20532;-40
2022/09/17 11:00:18;;;;;;;0.77;0.30;;;15.60;99.90;;;;;;5032127;28;20096;-41
2022/09/17 11:03:08;;;;;;;4.80;0.55;;;15.70;99.90;;;;;;5033090;28;20485;-44
2022/09/17 11:05:49;;;;;;;1.63;0.40;;;15.80;99.90;;;;;;5030394;28;20072;-45
2022/09/17 11:08:30;;;;;;;2.13;0.60;;;15.80;99.90;;;;;;5013346;28;20038;-38
2022/09/17 11:11:22;;;;;;;6.15;1.08;;;15.70;99.90;;;;;;5013216;28;20440;-40
2022/09/17 11:14:06;;;;;;;3.30;0.75;;;15.50;99.90;;;;;;5020002;28;20045;-44
2022/09/17 11:16:49;;;;;;;2.95;0.68;;;15.40;99.90;;;;;;5033029;28;20473;-53
2022/09/17 11:20:10;;;;;;;3.30;0.80;;;15.30;99.90;;;;;;5032875;28;20470;-39
2022/09/17 11:22:44;;;;;;;5.63;0.73;;;15.20;99.90;;;;;;5001191;28;20038;-39
2022/09/17 11:25:38;;;;;;;7.88;0.88;;;15.30;99.90;;;;;;5013041;28;20477;-41
2022/09/17 11:28:14;;;;;;;9.80;1.55;;;15.60;99.90;;;;;;5025797;28;20285;-40
2022/09/17 11:31:03;;;;;;;5.93;1.02;;;15.80;99.90;;;;;;5032384;28;20105;-40
2022/09/17 11:33:37;;;;;;;8.35;0.98;;;16.10;99.90;;;;;;5032752;28;20029;-42
2022/09/17 11:36:16;;;;;;;6.53;0.98;;;16.40;99.90;;;;;;5032794;28;20481;-41
2022/09/17 11:38:48;;;;;;;6.50;0.95;;;16.40;99.90;;;;;;5032506;28;20022;-49
2022/09/17 11:41:18;;;;;;;3.75;1.48;;;16.40;99.90;;;;;;5032672;28;20044;-61
2022/09/17 11:44:07;;;;;;;3.85;1.45;;;16.30;99.90;;;;;;5032576;28;20045;-43
2022/09/17 11:47:07;;;;;;;2.25;0.85;;;16.40;99.90;;;;;;5032549;28;20022;-41
2022/09/17 11:49:43;;;;;;;4.35;1.08;;;16.00;99.90;;;;;;5036016;28;20038;-42
2022/09/17 11:52:22;;;;;;;15.05;2.08;;;16.00;99.90;;;;;;5036835;28;20480;-41
2022/09/17 11:54:59;;;;;;;10.65;1.75;;;16.30;99.90;;;;;;5035926;28;20040;-41
2022/09/17 11:57:35;;;;;;;7.93;1.25;;;16.50;99.90;;;;;;5032397;28;20072;-41
2022/09/17 12:00:06;;;;;;;3.75;0.80;;;16.70;99.90;;;;;;5019034;28;20018;-41
2022/09/17 12:02:51;;;;;;;9.65;1.23;;;16.70;99.90;;;;;;5021034;28;20022;-42
2022/09/17 12:05:47;;;;;;;6.72;1.48;;;16.50;99.90;;;;;;5025170;28;20509;-40
2022/09/17 12:08:21;;;;;;;3.53;0.98;;;16.70;99.90;;;;;;5026820;28;20038;-40
2022/09/17 12:10:59;;;;;;;8.68;1.50;;;16.80;99.30;;;;;;5028841;28;20045;-39
2022/09/17 12:13:35;;;;;;;5.47;0.80;;;16.90;99.80;;;;;;5035546;28;20497;-40
2022/09/17 12:16:26;;;;;;;6.65;1.00;;;16.60;99.90;;;;;;5035160;28;20037;-41
2022/09/17 12:19:18;;;;;;;6.03;0.65;;;16.20;99.90;;;;;;5021544;28;20026;-41
2022/09/17 12:21:48;;;;;;;2.63;0.70;;;16.40;99.90;;;;;;5023815;28;20482;-41
2022/09/17 12:24:22;;;;;;;10.40;1.27;;;16.50;99.90;;;;;;5036039;28;20018;-40
2022/09/17 12:27:13;;;;;;;8.80;1.00;;;16.80;99.90;;;;;;5036088;28;20029;-45
2022/09/17 12:30:02;;;;;;;4.95;0.90;;;16.80;99.90;;;;;;5035475;28;20033;-46
2022/09/17 12:32:58;;;;;;;6.18;0.95;;;17.00;99.90;;;;;;5035884;28;20032;-41
2022/09/17 12:35:36;;;;;;;8.97;1.53;;;17.10;99.90;;;;;;5035940;28;20390;-40
2022/09/17 12:38:49;;;;;;;12.93;1.00;;;16.70;99.90;;;;;;5034079;28;20548;-40
2022/09/17 12:41:52;;;;;;;7.95;1.23;;;16.30;99.90;;;;;;4999468;28;20057;-40
2022/09/17 12:44:46;;;;;;;11.18;1.20;;;16.00;99.90;;;;;;5015733;28;20057;-41
2022/09/17 12:47:20;;;;;;;14.05;1.63;;;15.80;99.90;;;;;;5015669;28;20442;-42
2022/09/17 12:50:23;;;;;;;6.45;1.00;;;15.60;99.90;;;;;;5014811;28;20542;-40
2022/09/17 12:53:18;;;;;;;6.03;0.95;;;15.70;99.90;;;;;;5015716;28;20026;-40
2022/09/17 12:55:46;;;;;;;6.32;1.42;;;16.00;99.90;;;;;;5015537;28;20414;-40
2022/09/17 12:58:45;;;;;;;7.05;0.98;;;16.30;99.90;;;;;;5015375;28;20029;-40
2022/09/17 13:01:28;;;;;;;9.20;1.25;;;16.60;99.90;;;;;;5015398;28;20117;-39
2022/09/17 13:04:14;;;;;;;6.65;1.23;;;16.70;99.90;;;;;;5015461;28;20386;-39
2022/09/17 13:06:40;;;;;;;7.63;0.95;;;16.90;99.70;;;;;;5021419;28;20490;-38
2022/09/17 13:09:23;;;;;;;8.02;0.82;;;17.00;99.70;;;;;;5035089;28;20032;-38
2022/09/17 13:12:07;;;;;;;13.20;1.63;;;17.30;99.80;;;;;;5034635;28;20021;-40
2022/09/17 13:14:51;;;;;;;11.63;2.00;;;17.40;99.50;;;;;;5030438;28;20030;-42
2022/09/17 13:17:35;;;;;;;3.90;1.10;;;17.10;99.70;;;;;;5015273;28;20072;-39